createdAt,value
2023-01-22T00:01:15.593Z,96333.03
2023-01-22T00:03:46.526Z,96297.25
2023-01-22T00:06:14.868Z,96331.84
2023-01-22T00:08:44.020Z,96328.41
2023-01-22T00:11:12.735Z,96337.41
2023-01-22T00:13:40.624Z,96337.25
2023-01-22T00:16:09.249Z,96327.25
2023-01-22T00:18:36.974Z,96330.47
2023-01-22T00:21:04.761Z,96336.13
2023-01-22T00:23:33.043Z,96337.25
2023-01-22T00:26:07.108Z,96334.63
2023-01-22T00:28:34.889Z,96330.06
2023-01-22T00:31:04.408Z,96339.06
2023-01-22T00:33:32.677Z,96330.47
2023-01-22T00:36:05.172Z,96329.03
2023-01-22T00:38:32.786Z,96247.69
2023-01-22T00:41:02.258Z,96305.88
2023-01-22T00:43:32.050Z,96287.72
2023-01-22T00:45:59.663Z,96302.53
2023-01-22T00:48:28.143Z,96324.31
2023-01-22T00:50:56.309Z,96320.97
2023-01-22T00:53:24.124Z,96324.50
2023-01-22T00:55:52.543Z,96326.81
2023-01-22T00:58:20.465Z,96323.03
2023-01-22T01:00:50.003Z,96327.25
2023-01-22T01:03:32.367Z,96322.50
2023-01-22T01:06:02.725Z,96332.59
2023-01-22T01:08:32.552Z,96327.19
2023-01-22T01:11:02.527Z,96329.66
2023-01-22T01:13:32.837Z,96334.19
2023-01-22T01:16:03.483Z,96326.09
2023-01-22T01:18:32.155Z,96337.63
2023-01-22T01:21:01.105Z,96338.75
2023-01-22T01:23:29.771Z,96342.94
2023-01-22T01:25:57.922Z,96341.22
2023-01-22T01:28:25.786Z,96337.84
2023-01-22T01:30:53.525Z,96342.09
2023-01-22T01:33:23.174Z,96337.47
2023-01-22T01:35:50.801Z,96345.78
2023-01-22T01:38:18.409Z,96334.44
2023-01-22T01:40:46.152Z,96341.59
2023-01-22T01:43:17.504Z,96341.81
2023-01-22T01:45:45.683Z,96340.44
2023-01-22T01:48:25.077Z,96342.47
2023-01-22T01:50:59.054Z,96335.09
2023-01-22T01:53:26.921Z,96341.31
2023-01-22T01:55:57.364Z,96346.81
2023-01-22T01:58:29.895Z,96340.09
2023-01-22T02:01:06.662Z,96339.09
2023-01-22T02:03:35.827Z,96345.81
2023-01-22T02:06:03.539Z,96335.84
2023-01-22T02:08:31.494Z,96321.81
2023-01-22T02:10:59.503Z,96363.06
2023-01-22T02:13:31.238Z,96339.00
2023-01-22T02:15:59.992Z,96338.81
2023-01-22T02:18:27.880Z,96336.09
2023-01-22T02:20:58.750Z,96187.06
2023-01-22T02:23:27.601Z,96308.03
2023-01-22T02:25:55.718Z,96337.63
2023-01-22T02:28:23.895Z,96338.28
2023-01-22T02:30:54.701Z,96340.03
2023-01-22T02:33:22.463Z,96337.25
2023-01-22T02:35:50.199Z,96320.44
2023-01-22T02:38:19.428Z,96335.53
2023-01-22T02:40:49.938Z,96344.22
2023-01-22T02:43:20.337Z,96341.44
2023-01-22T02:45:48.134Z,96344.00
2023-01-22T02:48:16.036Z,96314.28
2023-01-22T02:50:45.082Z,96338.97
2023-01-22T02:53:14.199Z,96336.72
2023-01-22T02:55:46.154Z,96333.34
2023-01-22T02:58:15.019Z,96300.78
2023-01-22T03:00:42.888Z,96254.03
2023-01-22T03:03:15.559Z,96321.38
2023-01-22T03:05:48.147Z,96329.78
2023-01-22T03:08:16.345Z,96323.66
2023-01-22T03:10:45.958Z,96337.84
2023-01-22T03:13:31.791Z,96336.00
2023-01-22T03:16:17.079Z,96320.81
2023-01-22T03:19:03.164Z,96345.16
2023-01-22T03:21:30.764Z,96267.84
2023-01-22T03:23:58.399Z,96343.69
2023-01-22T03:26:28.872Z,96314.19
2023-01-22T03:28:56.494Z,96339.56
2023-01-22T03:31:24.197Z,96340.34
2023-01-22T03:33:52.560Z,96336.72
2023-01-22T03:36:20.259Z,96339.13
2023-01-22T03:38:52.136Z,96343.25
2023-01-22T03:41:23.471Z,96339.13
2023-01-22T03:43:54.618Z,96338.69
2023-01-22T03:46:26.925Z,96340.72
2023-01-22T03:48:57.761Z,96350.84
2023-01-22T03:51:27.134Z,96353.84
2023-01-22T03:53:54.842Z,96352.91
2023-01-22T03:56:24.382Z,96348.47
2023-01-22T03:58:56.886Z,96361.78
2023-01-22T04:01:26.640Z,96356.63
2023-01-22T04:03:54.604Z,96365.75
2023-01-22T04:06:25.338Z,96366.34
2023-01-22T04:08:55.373Z,96359.63
2023-01-22T04:11:28.806Z,96347.41
2023-01-22T04:13:58.706Z,96367.00
2023-01-22T04:16:29.722Z,96367.75
2023-01-22T04:19:07.942Z,96369.34
2023-01-22T04:21:49.047Z,96365.38
2023-01-22T04:24:17.057Z,96371.53
2023-01-22T04:26:44.718Z,96356.41
2023-01-22T04:29:15.228Z,96374.38
2023-01-22T04:31:43.871Z,96379.50
2023-01-22T04:34:21.138Z,96378.78
2023-01-22T04:37:11.618Z,96377.53
2023-01-22T04:39:39.521Z,96380.06
2023-01-22T04:42:07.127Z,96381.72
2023-01-22T04:44:36.143Z,96388.84
2023-01-22T04:47:03.793Z,96384.44
2023-01-22T04:49:32.332Z,96381.31
2023-01-22T04:52:00.175Z,96384.84
2023-01-22T04:54:29.624Z,96384.91
2023-01-22T04:56:57.419Z,96394.84
2023-01-22T04:59:25.036Z,96363.66
2023-01-22T05:01:54.081Z,96364.88
2023-01-22T05:04:23.765Z,96300.38
2023-01-22T05:06:52.305Z,96393.59
2023-01-22T05:09:20.257Z,96375.59
2023-01-22T05:11:56.074Z,96394.41
2023-01-22T05:14:24.484Z,96393.78
2023-01-22T05:16:52.126Z,96408.31
2023-01-22T05:19:22.182Z,96411.69
2023-01-22T05:21:50.062Z,96283.97
2023-01-22T05:24:19.404Z,96408.25
2023-01-22T05:26:47.203Z,96410.63
2023-01-22T05:29:19.641Z,96408.69
2023-01-22T05:32:15.589Z,96375.22
2023-01-22T05:34:50.273Z,96409.41
2023-01-22T05:37:17.876Z,96415.34
2023-01-22T05:39:45.475Z,96417.31
2023-01-22T05:42:16.933Z,96406.03
2023-01-22T05:44:47.933Z,96420.44
2023-01-22T05:47:16.134Z,96418.47
2023-01-22T05:49:50.593Z,96419.81
2023-01-22T05:52:18.233Z,96334.78
2023-01-22T05:54:46.427Z,96410.53
2023-01-22T05:57:14.211Z,96427.84
2023-01-22T05:59:42.012Z,96429.91
2023-01-22T06:02:10.095Z,96429.47
2023-01-22T06:04:43.309Z,96435.16
2023-01-22T06:07:26.217Z,96432.50
2023-01-22T06:09:53.907Z,96445.00
2023-01-22T06:12:21.595Z,96435.47
2023-01-22T06:14:49.372Z,96440.03
2023-01-22T06:17:17.019Z,96384.06
2023-01-22T06:19:52.220Z,96442.06
2023-01-22T06:22:20.214Z,96445.16
2023-01-22T06:24:54.342Z,96446.84
2023-01-22T06:27:24.706Z,96436.28
2023-01-22T06:29:56.858Z,96444.81
2023-01-22T06:32:24.536Z,96435.16
2023-01-22T06:34:53.180Z,96454.44
2023-01-22T06:37:22.839Z,96455.75
2023-01-22T06:39:50.980Z,96458.25
2023-01-22T06:42:27.111Z,96462.97
2023-01-22T06:44:54.757Z,96461.97
2023-01-22T06:47:25.708Z,96464.22
2023-01-22T06:49:53.311Z,96464.47
2023-01-22T06:52:21.091Z,96463.69
2023-01-22T06:54:48.864Z,96465.28
2023-01-22T06:57:16.834Z,96464.72
2023-01-22T06:59:45.897Z,96466.34
2023-01-22T07:02:17.449Z,96470.59
2023-01-22T07:04:45.515Z,96473.97
2023-01-22T07:07:13.403Z,96475.56
2023-01-22T07:09:41.552Z,96474.94
2023-01-22T07:12:09.425Z,96480.47
2023-01-22T07:14:37.865Z,96481.91
2023-01-22T07:17:07.099Z,96487.25
2023-01-22T07:19:34.714Z,96490.06
2023-01-22T07:22:02.337Z,96488.41
2023-01-22T07:24:29.938Z,96492.59
2023-01-22T07:26:57.541Z,96499.56
2023-01-22T07:29:25.191Z,96492.59
2023-01-22T07:31:52.955Z,96492.56
2023-01-22T07:34:22.100Z,96498.03
2023-01-22T07:36:49.798Z,96505.78
2023-01-22T07:39:17.575Z,96499.69
2023-01-22T07:41:45.188Z,96500.75
2023-01-22T07:44:13.252Z,96501.28
2023-01-22T07:46:40.899Z,96501.59
2023-01-22T07:49:08.515Z,96501.03
2023-01-22T07:51:37.621Z,96495.06
2023-01-22T07:54:05.280Z,96499.44
2023-01-22T07:56:32.969Z,96478.06
2023-01-22T07:59:00.671Z,96507.63
2023-01-22T08:01:28.355Z,96442.44
2023-01-22T08:03:57.162Z,96505.38
2023-01-22T08:06:25.007Z,96507.69
2023-01-22T08:08:54.137Z,96507.88
2023-01-22T08:11:21.938Z,96508.63
2023-01-22T08:13:49.671Z,96515.72
2023-01-22T08:16:17.420Z,96512.84
2023-01-22T08:18:47.247Z,96518.47
2023-01-22T08:21:14.844Z,96516.34
2023-01-22T08:23:46.175Z,96438.28
2023-01-22T08:26:16.751Z,96519.56
2023-01-22T08:28:44.337Z,96523.13
2023-01-22T08:31:26.379Z,96521.97
2023-01-22T08:33:55.348Z,96530.91
2023-01-22T08:36:23.021Z,96528.44
2023-01-22T08:38:50.616Z,96531.75
2023-01-22T08:41:19.731Z,96530.78
2023-01-22T08:43:47.305Z,96525.41
2023-01-22T08:46:15.084Z,96534.41
2023-01-22T08:48:44.143Z,96542.59
2023-01-22T08:51:12.201Z,96536.69
2023-01-22T08:53:40.140Z,96537.06
2023-01-22T08:56:08.569Z,96547.91
2023-01-22T08:58:37.542Z,96541.97
2023-01-22T09:01:05.574Z,96552.44
2023-01-22T09:03:33.281Z,96555.31
2023-01-22T09:06:00.884Z,96560.47
2023-01-22T09:08:28.570Z,96562.59
2023-01-22T09:10:56.141Z,96564.59
2023-01-22T09:13:23.736Z,96559.59
2023-01-22T09:15:52.794Z,96577.13
2023-01-22T09:18:20.385Z,96581.47
2023-01-22T09:20:48.020Z,96584.44
2023-01-22T09:23:15.929Z,96554.69
2023-01-22T09:25:43.765Z,96598.28
2023-01-22T09:28:12.334Z,96600.63
2023-01-22T09:30:41.670Z,96607.53
2023-01-22T09:33:11.053Z,96605.97
2023-01-22T09:35:38.775Z,96611.09
2023-01-22T09:38:06.571Z,96614.19
2023-01-22T09:40:41.872Z,96613.09
2023-01-22T09:43:24.768Z,96613.47
2023-01-22T09:45:55.792Z,96614.06
2023-01-22T09:48:34.523Z,96615.56
2023-01-22T09:51:02.500Z,96608.16
2023-01-22T09:53:31.279Z,96614.56
2023-01-22T09:55:59.653Z,96551.81
2023-01-22T09:58:27.933Z,96618.28
2023-01-22T10:01:00.189Z,96608.44
2023-01-22T10:03:34.163Z,96614.03
2023-01-22T10:06:05.718Z,96606.78
2023-01-22T10:08:38.824Z,96605.78
2023-01-22T10:11:09.890Z,96623.31
2023-01-22T10:13:39.511Z,96612.94
2023-01-22T10:16:08.033Z,96610.59
2023-01-22T10:18:41.939Z,96606.22
2023-01-22T10:21:18.536Z,96598.91
2023-01-22T10:23:47.065Z,96622.69
2023-01-22T10:26:17.915Z,96622.94
2023-01-22T10:28:46.871Z,96623.69
2023-01-22T10:31:24.562Z,96596.81
2023-01-22T10:33:58.763Z,96628.13
2023-01-22T10:36:27.280Z,96620.88
2023-01-22T10:39:04.978Z,96634.03
2023-01-22T10:41:32.841Z,96627.75
2023-01-22T10:44:10.487Z,96631.88
2023-01-22T10:46:38.101Z,96628.38
2023-01-22T10:49:08.341Z,96622.31
2023-01-22T10:51:38.556Z,96604.94
2023-01-22T10:54:19.367Z,96574.69
2023-01-22T10:56:47.307Z,96617.03
2023-01-22T10:59:23.031Z,96627.81
2023-01-22T11:01:57.522Z,96626.59
2023-01-22T11:04:28.558Z,96620.50
2023-01-22T11:07:01.407Z,96624.47
2023-01-22T11:09:35.101Z,96622.31
2023-01-22T11:12:12.045Z,96616.81
2023-01-22T11:14:40.476Z,96589.56
2023-01-22T11:17:15.588Z,96614.06
2023-01-22T11:19:51.345Z,96608.81
2023-01-22T11:22:27.395Z,96604.13
2023-01-22T11:24:55.449Z,96610.69
2023-01-22T11:27:50.195Z,96607.06
2023-01-22T11:30:38.293Z,96612.00
2023-01-22T11:33:14.566Z,96569.91
2023-01-22T11:35:52.196Z,96609.44
2023-01-22T11:38:29.437Z,96600.47
2023-01-22T11:41:09.533Z,96605.72
2023-01-22T11:43:55.461Z,96607.56
2023-01-22T11:46:37.173Z,96609.47
2023-01-22T11:49:14.323Z,96607.00
2023-01-22T11:51:56.003Z,96559.97
2023-01-22T11:54:45.982Z,96602.59
2023-01-22T11:57:20.289Z,96480.13
2023-01-22T12:00:14.720Z,96606.88
2023-01-22T12:03:17.403Z,96603.69
2023-01-22T12:05:49.024Z,96601.56
2023-01-22T12:08:41.089Z,96598.63
2023-01-22T12:11:24.208Z,96588.22
2023-01-22T12:14:26.026Z,96594.81
2023-01-22T12:17:02.824Z,96586.84
2023-01-22T12:19:53.753Z,96589.06
2023-01-22T12:22:43.202Z,96580.94
2023-01-22T12:25:19.015Z,96589.06
2023-01-22T12:27:53.227Z,96588.88
2023-01-22T12:30:24.598Z,96587.28
2023-01-22T12:32:56.707Z,96597.25
2023-01-22T12:35:25.877Z,96591.66
2023-01-22T12:38:02.597Z,96591.34
2023-01-22T12:40:57.449Z,96598.81
2023-01-22T12:43:35.036Z,96563.97
2023-01-22T12:46:10.207Z,96603.25
2023-01-22T12:48:47.067Z,96574.00
2023-01-22T12:51:27.091Z,96605.28
2023-01-22T12:53:54.975Z,96607.31
2023-01-22T12:56:33.889Z,96610.06
2023-01-22T12:59:01.671Z,96617.03
2023-01-22T13:01:35.653Z,96617.00
2023-01-22T13:04:06.666Z,96620.34
2023-01-22T13:06:36.413Z,96613.09
2023-01-22T13:09:05.325Z,96618.75
2023-01-22T13:11:36.744Z,96624.50
2023-01-22T13:14:20.096Z,96616.91
2023-01-22T13:16:53.859Z,96595.59
2023-01-22T13:19:24.033Z,96612.81
2023-01-22T13:21:52.727Z,96618.16
2023-01-22T13:24:22.016Z,96557.50
2023-01-22T13:26:57.008Z,96617.16
2023-01-22T13:29:28.540Z,96556.94
2023-01-22T13:31:57.874Z,96623.44
2023-01-22T13:34:26.453Z,96606.91
2023-01-22T13:36:55.427Z,96589.22
2023-01-22T13:39:28.347Z,96616.91
2023-01-22T13:41:59.613Z,96619.97
2023-01-22T13:44:32.646Z,96626.94
2023-01-22T13:47:00.627Z,96622.34
2023-01-22T13:49:29.714Z,96614.34
2023-01-22T13:52:00.225Z,96635.56
2023-01-22T13:54:31.719Z,96632.31
2023-01-22T13:57:00.774Z,96569.31
2023-01-22T13:59:34.860Z,96639.84
2023-01-22T14:02:13.624Z,96515.94
2023-01-22T14:04:41.492Z,96648.28
2023-01-22T14:07:09.791Z,96645.44
2023-01-22T14:09:40.435Z,96650.63
2023-01-22T14:12:18.377Z,96634.59
2023-01-22T14:14:46.307Z,96626.34
2023-01-22T14:17:25.622Z,96653.13
2023-01-22T14:19:56.571Z,96650.63
2023-01-22T14:22:24.575Z,96654.81
2023-01-22T14:24:52.891Z,96596.13
2023-01-22T14:27:22.613Z,96648.66
2023-01-22T14:29:50.518Z,96655.50
2023-01-22T14:32:18.132Z,96662.03
2023-01-22T14:34:45.756Z,96663.78
2023-01-22T14:37:16.401Z,96668.91
2023-01-22T14:39:44.063Z,96666.31
2023-01-22T14:42:12.522Z,96566.16
2023-01-22T14:44:41.481Z,96570.28
2023-01-22T14:47:09.103Z,96672.47
2023-01-22T14:49:36.723Z,96678.47
2023-01-22T14:52:04.571Z,96672.66
2023-01-22T14:54:32.185Z,96676.19
2023-01-22T14:57:03.169Z,96685.19
2023-01-22T14:59:30.971Z,96638.53
2023-01-22T15:02:00.358Z,96681.97
2023-01-22T15:04:28.141Z,96690.38
2023-01-22T15:06:55.824Z,96685.56
2023-01-22T15:09:23.485Z,96667.88
2023-01-22T15:11:51.170Z,96567.94
2023-01-22T15:14:18.783Z,96638.84
2023-01-22T15:16:46.481Z,96690.53
2023-01-22T15:19:18.300Z,96692.28
2023-01-22T15:21:46.300Z,96691.19
2023-01-22T15:24:14.055Z,96673.50
2023-01-22T15:26:41.748Z,96693.72
2023-01-22T15:29:11.216Z,96657.03
2023-01-22T15:31:39.565Z,96695.00
2023-01-22T15:34:08.721Z,96699.50
2023-01-22T15:36:40.431Z,96674.03
2023-01-22T15:39:08.465Z,96697.41
2023-01-22T15:41:37.819Z,96582.84
2023-01-22T15:44:06.821Z,96701.53
2023-01-22T15:46:36.573Z,96701.41
2023-01-22T15:49:06.271Z,96700.53
2023-01-22T15:51:33.868Z,96701.28
2023-01-22T15:54:05.196Z,96703.44
2023-01-22T15:56:34.712Z,96700.47
2023-01-22T15:59:02.999Z,96709.59
2023-01-22T16:01:31.236Z,96704.78
2023-01-22T16:04:00.786Z,96712.53
2023-01-22T16:06:30.120Z,96716.50
2023-01-22T16:09:00.324Z,96716.25
2023-01-22T16:11:30.901Z,96714.28
2023-01-22T16:13:59.111Z,96720.25
2023-01-22T16:16:30.290Z,96719.81
2023-01-22T16:18:59.179Z,96720.16
2023-01-22T16:21:27.003Z,96723.41
2023-01-22T16:23:56.587Z,96723.13
2023-01-22T16:26:26.731Z,96720.75
2023-01-22T16:28:58.093Z,96731.88
2023-01-22T16:31:44.795Z,96727.69
2023-01-22T16:34:14.513Z,96718.72
2023-01-22T16:36:43.670Z,96733.03
2023-01-22T16:39:18.210Z,96737.59
2023-01-22T16:41:48.411Z,96739.28
2023-01-22T16:44:19.019Z,96744.03
2023-01-22T16:46:49.393Z,96745.34
2023-01-22T16:49:20.019Z,96722.28
2023-01-22T16:51:49.122Z,96749.47
2023-01-22T16:54:20.899Z,96748.69
2023-01-22T16:56:49.290Z,96605.13
2023-01-22T16:59:18.406Z,96712.06
2023-01-22T17:01:46.664Z,96649.59
2023-01-22T17:04:14.998Z,96751.19
2023-01-22T17:06:45.284Z,96725.31
2023-01-22T17:09:16.403Z,96624.38
2023-01-22T17:11:46.291Z,96733.63
2023-01-22T17:14:14.289Z,96746.19
2023-01-22T17:16:43.473Z,96751.91
2023-01-22T17:19:11.213Z,96753.50
2023-01-22T17:21:38.903Z,96751.09
2023-01-22T17:24:07.165Z,96753.84
2023-01-22T17:26:34.774Z,96755.81
2023-01-22T17:29:02.430Z,96715.63
2023-01-22T17:31:31.322Z,96763.34
2023-01-22T17:34:00.430Z,96763.78
2023-01-22T17:36:29.591Z,96757.78
2023-01-22T17:38:57.822Z,96762.19
2023-01-22T17:41:26.955Z,96653.91
2023-01-22T17:43:55.950Z,96621.91
2023-01-22T17:46:25.593Z,96777.16
2023-01-22T17:48:54.204Z,96782.78
2023-01-22T17:51:25.500Z,96781.78
2023-01-22T17:53:55.431Z,96774.56
2023-01-22T17:56:25.971Z,96779.38
2023-01-22T17:58:55.125Z,96782.81
2023-01-22T18:01:27.876Z,96783.63
2023-01-22T18:03:57.117Z,96784.97
2023-01-22T18:06:26.536Z,96783.53
2023-01-22T18:08:54.891Z,96662.84
2023-01-22T18:11:27.521Z,96799.41
2023-01-22T18:13:56.601Z,96789.56
2023-01-22T18:16:24.918Z,96794.13
2023-01-22T18:18:53.271Z,96794.13
2023-01-22T18:21:21.970Z,96792.94
2023-01-22T18:23:51.503Z,96798.13
2023-01-22T18:26:22.894Z,96789.22
2023-01-22T18:28:50.877Z,96758.94
2023-01-22T18:31:21.376Z,96799.28
2023-01-22T18:33:49.394Z,96793.03
2023-01-22T18:36:19.554Z,96807.22
2023-01-22T18:38:47.528Z,96806.06
2023-01-22T18:41:21.038Z,96803.47
2023-01-22T18:43:50.475Z,96807.84
2023-01-22T18:46:19.923Z,96816.03
2023-01-22T18:48:47.604Z,96737.97
2023-01-22T18:51:15.255Z,96797.28
2023-01-22T18:53:43.353Z,96776.91
2023-01-22T18:56:12.569Z,96821.91
2023-01-22T18:58:44.384Z,96814.97
2023-01-22T19:01:14.734Z,96816.75
2023-01-22T19:03:44.052Z,96819.50
2023-01-22T19:06:15.993Z,96779.56
2023-01-22T19:08:45.011Z,96790.47
2023-01-22T19:11:14.246Z,96805.38
2023-01-22T19:13:44.841Z,96817.94
2023-01-22T19:16:14.409Z,96828.59
2023-01-22T19:18:43.886Z,96819.75
2023-01-22T19:21:13.489Z,96828.41
2023-01-22T19:23:45.465Z,96832.25
2023-01-22T19:26:17.689Z,96831.59
2023-01-22T19:28:46.879Z,96832.41
2023-01-22T19:31:19.044Z,96837.44
2023-01-22T19:33:46.915Z,96840.44
2023-01-22T19:36:15.055Z,96846.47
2023-01-22T19:38:43.053Z,96807.47
2023-01-22T19:41:10.719Z,96838.09
2023-01-22T19:43:39.012Z,96741.56
2023-01-22T19:46:09.975Z,96854.59
2023-01-22T19:48:38.481Z,96858.66
2023-01-22T19:51:08.866Z,96864.53
2023-01-22T19:53:37.276Z,96866.44
2023-01-22T19:56:06.478Z,96864.56
2023-01-22T19:58:34.100Z,96871.22
2023-01-22T20:01:01.964Z,96866.56
2023-01-22T20:03:31.107Z,96878.22
2023-01-22T20:05:58.711Z,96879.53
2023-01-22T20:08:26.328Z,96881.16
2023-01-22T20:10:59.186Z,96879.09
2023-01-22T20:13:27.612Z,96888.00
2023-01-22T20:15:55.351Z,96887.06
2023-01-22T20:18:23.773Z,96888.22
2023-01-22T20:20:54.886Z,96894.38
2023-01-22T20:23:23.335Z,96889.38
2023-01-22T20:25:51.667Z,96890.69
2023-01-22T20:28:20.590Z,96846.47
2023-01-22T20:30:58.110Z,96895.84
2023-01-22T20:33:26.198Z,96895.56
2023-01-22T20:35:57.877Z,96900.06
2023-01-22T20:38:26.158Z,96898.13
2023-01-22T20:40:54.133Z,96895.88
2023-01-22T20:43:22.043Z,96901.84
2023-01-22T20:46:00.072Z,96870.75
2023-01-22T20:48:28.096Z,96895.38
2023-01-22T20:50:57.123Z,96898.44
2023-01-22T20:53:25.371Z,96883.97
2023-01-22T20:56:00.331Z,96900.72
2023-01-22T20:58:28.547Z,96904.09
2023-01-22T21:00:56.466Z,96902.31
2023-01-22T21:03:25.151Z,96906.50
2023-01-22T21:05:52.753Z,96902.47
2023-01-22T21:08:21.713Z,96905.88
2023-01-22T21:10:57.066Z,96895.56
2023-01-22T21:13:24.721Z,96896.22
2023-01-22T21:15:53.760Z,96827.03
2023-01-22T21:18:22.657Z,96900.44
2023-01-22T21:20:51.046Z,96883.34
2023-01-22T21:23:18.762Z,96897.03
2023-01-22T21:25:47.702Z,96899.16
2023-01-22T21:28:15.654Z,96903.34
2023-01-22T21:30:43.438Z,96910.63
2023-01-22T21:33:11.110Z,96916.75
2023-01-22T21:35:38.713Z,96923.38
2023-01-22T21:38:06.332Z,96921.56
2023-01-22T21:40:33.968Z,96918.50
2023-01-22T21:43:20.406Z,96919.16
2023-01-22T21:46:05.566Z,96920.78
2023-01-22T21:48:33.345Z,96898.88
2023-01-22T21:51:02.890Z,96907.88
2023-01-22T21:53:30.528Z,96919.66
2023-01-22T21:55:58.358Z,96922.25
2023-01-22T21:58:27.326Z,96918.06
2023-01-22T22:00:55.641Z,96852.66
2023-01-22T22:03:24.323Z,96886.81
2023-01-22T22:05:56.523Z,96915.47
2023-01-22T22:08:24.149Z,96920.78
2023-01-22T22:10:52.822Z,96898.72
2023-01-22T22:13:20.800Z,96924.31
2023-01-22T22:15:50.206Z,96918.53
2023-01-22T22:18:17.842Z,96916.28
2023-01-22T22:20:45.455Z,96926.25
2023-01-22T22:23:13.060Z,96917.56
2023-01-22T22:25:40.676Z,96919.34
2023-01-22T22:28:08.270Z,96897.75
2023-01-22T22:30:35.893Z,96928.81
2023-01-22T22:33:04.968Z,96921.91
2023-01-22T22:35:32.759Z,96921.75
2023-01-22T22:38:00.392Z,96891.31
2023-01-22T22:40:28.025Z,96913.50
2023-01-22T22:42:55.677Z,96911.75
2023-01-22T22:45:23.442Z,96871.66
2023-01-22T22:47:51.053Z,96904.16
2023-01-22T22:50:20.406Z,96911.72
2023-01-22T22:52:48.307Z,96910.59
2023-01-22T22:55:16.176Z,96923.16
2023-01-22T22:57:43.786Z,96916.25
2023-01-22T23:00:14.483Z,96918.63
2023-01-22T23:02:42.611Z,96914.94
2023-01-22T23:05:10.615Z,96925.25
2023-01-22T23:07:39.585Z,96922.84
2023-01-22T23:10:28.366Z,96930.56
2023-01-22T23:12:58.211Z,96929.78
2023-01-22T23:15:27.465Z,96935.88
2023-01-22T23:17:56.324Z,96926.72
2023-01-22T23:20:25.097Z,96935.56
2023-01-22T23:22:56.688Z,96931.19
2023-01-22T23:25:25.035Z,96925.06
2023-01-22T23:27:52.873Z,96941.50
2023-01-22T23:30:20.879Z,96943.75
2023-01-22T23:32:48.633Z,96917.38
2023-01-22T23:35:16.362Z,96908.84
2023-01-22T23:37:44.029Z,96914.16
2023-01-22T23:40:13.861Z,96942.97
2023-01-22T23:42:41.498Z,96943.75
2023-01-22T23:45:11.930Z,96856.34
2023-01-22T23:47:39.693Z,96833.97
2023-01-22T23:50:08.629Z,96944.25
2023-01-22T23:52:36.294Z,96955.19
2023-01-22T23:55:04.259Z,96952.94
2023-01-22T23:57:33.291Z,96955.69
